Terminal Aerodrome Forecast
Issued by NWS

Current Version | Previous Version | Text Only | Print | Product List | Glossary On
Versions: 1 2 3 4 5 6 7 8 9 10 11 12 13 14 15 16
401
FTPA31 PHFO 221738
TAFHTO
TAF
PHTO 221738Z 2218/2318 05015KT P6SM -SHRA FEW015 SCT025 BKN045
      TEMPO 2220/2224 5SM -SHRA BKN020 OVC035
     FM230200 15008KT P6SM VCSH SCT025 BKN045=

USA.gov is the U.S. government's official web portal to all federal, state and local government web resources and services.